ESSA Airport Information

Runway Information
Runway 01R Length 8201 ft width 148 ft Elevation 137 ft Threshold N/A Heading 10
Runway 19L Length 8201 ft Width 148 ft Elevation 98 ft Threshold N/A Heading 190
Runway 01L Length 10830 ft width 148 ft Elevation 98 ft Threshold N/A Heading 10
Runway 19R Length 10830 ft Width 148 ft Elevation 118 ft Threshold N/A Heading 190
Runway 08 Length 8202 ft width 148 ft Elevation 108 ft Threshold N/A Heading 76
Runway 26 Length 8202 ft Width 148 ft Elevation 124 ft Threshold N/A Heading 256
Airport Frequencies
Type APP Name STOCKHOLM Frequency 123.75 MHZ
Type ATIS Name ATIS Frequency 119 MHZ
Type CLD Name CLNC DEL Frequency 121.825 MHZ
Type GND Name GND Frequency 121.7 MHZ
Type PMSV Name MET OFFICE Frequency 122.6 MHZ
Type TWR Name TWR Frequency 118.5 MHZ
Airport Navaids
Type VOR-DME Name Arlanda Frequency 116000 KHZ
Type NDB Name Arlanda Frequency 352 KHZ
Type NDB Name Arlanda Frequency 360 KHZ
Type NDB Name Arlanda Frequency 404 KHZ
Type NDB Name Arlanda Frequency 370 KHZ
Airport Weather Information & NOTAM
ADDS - METARS form results

(1447 UTC 05 December 2022)
Data provider http://aviationweather.gov/metar/data/
 
METAR text: ESSA 051420Z 08004KT 9999 OVC028 M02/M03 Q1025 NOSIG
Conditions at: ESSA (STOCKHOLM/ARLAND, SE) observed 1420 UTC 05 December 2022
Temperature: -2.0°C (28°F)
Dewpoint: -3.0°C (27°F) [RH = 93%]
Pressure (altimeter): 30.27 inches Hg (1025.0 mb)
Winds: from the E (80 degrees) at 5 MPH (4 knots; 2.1 m/s)
Visibility: 6 or more miles (10+ km)
Ceiling: 2800 feet AGL
Clouds: overcast cloud deck at 2800 feet AGL
Weather: no significant weather observed at this time

METAR text: ESSA 051350Z VRB02KT 9999 OVC028 M02/M03 Q1026 NOSIG
Conditions at: ESSA (STOCKHOLM/ARLAND, SE) observed 1350 UTC 05 December 2022
Temperature: -2.0°C (28°F)
Dewpoint: -3.0°C (27°F) [RH = 93%]
Pressure (altimeter): 30.30 inches Hg (1026.0 mb)
Winds: variable direction winds at 2 MPH (2 knots; 1.0 m/s)
Visibility: 6 or more miles (10+ km)
Ceiling: 2800 feet AGL
Clouds: overcast cloud deck at 2800 feet AGL
Weather: no significant weather observed at this time

Forecast for: ESSA (STOCKHOLM/ARLAND, SE)
Text: TAF ESSA 051430Z 0515/0615 VRB03KT 9999 BKN030
Forecast period: 1500 UTC 05 December 2022 to 1500 UTC 06 December 2022
Forecast type: FROM: standard forecast or significant change
Winds: variable direction winds at 3 MPH (3 knots; 1.5 m/s)
Visibility: 6 or more miles (10+ km)
Ceiling: 3000 feet AGL
Clouds: broken clouds at 3000 feet AGL
Weather: no significant weather forecast for this period